createdAt,value
2019-05-30T00:01:44.693Z,1.77
2019-05-30T00:03:52.242Z,1.40
2019-05-30T00:12:47.976Z,1.53
2019-05-30T00:15:01.292Z,1.23
2019-05-30T00:17:08.937Z,1.60
2019-05-30T00:19:16.533Z,1.60
2019-05-30T00:21:24.201Z,1.70
2019-05-30T00:23:31.958Z,1.50
2019-05-30T00:25:39.821Z,1.93
2019-05-30T00:27:47.650Z,1.63
2019-05-30T00:29:55.286Z,1.80
2019-05-30T00:32:03.964Z,1.73
2019-05-30T00:34:12.472Z,1.60
2019-05-30T00:36:20.389Z,1.57
2019-05-30T00:38:27.982Z,1.60
2019-05-30T00:40:35.532Z,1.53
2019-05-30T00:42:43.182Z,1.37
2019-05-30T00:44:50.869Z,1.47
2019-05-30T00:46:58.467Z,1.70
2019-05-30T00:49:06.955Z,1.83
2019-05-30T00:51:14.304Z,1.63
2019-05-30T00:53:21.698Z,1.70
2019-05-30T00:55:29.147Z,1.80
2019-05-30T00:57:36.541Z,1.50
2019-05-30T00:59:43.955Z,1.60
2019-05-30T01:01:51.439Z,1.80
2019-05-30T01:03:59.006Z,1.83
2019-05-30T01:06:07.273Z,2.20
2019-05-30T01:08:14.839Z,2.00
2019-05-30T01:10:22.317Z,2.07
2019-05-30T01:12:29.827Z,1.60
2019-05-30T01:14:37.196Z,1.90
2019-05-30T01:16:44.771Z,1.97
2019-05-30T01:18:52.189Z,1.80
2019-05-30T01:20:59.616Z,1.90
2019-05-30T01:23:07.509Z,2.20
2019-05-30T01:25:16.585Z,2.30
2019-05-30T01:27:24.050Z,1.70
2019-05-30T01:29:31.543Z,1.60
2019-05-30T01:31:38.939Z,2.17
2019-05-30T01:33:46.279Z,2.13
2019-05-30T01:35:53.679Z,2.00
2019-05-30T01:38:01.844Z,1.97
2019-05-30T01:40:10.062Z,2.50
2019-05-30T01:42:17.522Z,2.33
2019-05-30T01:44:24.973Z,2.60
2019-05-30T01:46:32.966Z,2.07
2019-05-30T01:48:40.326Z,2.13
2019-05-30T01:50:47.795Z,2.33
2019-05-30T01:52:55.284Z,2.40
2019-05-30T01:55:02.829Z,2.33
2019-05-30T01:57:10.594Z,1.97
2019-05-30T01:59:18.012Z,2.33
2019-05-30T02:01:25.856Z,2.10
2019-05-30T02:03:33.516Z,2.30
2019-05-30T02:05:41.206Z,2.50
2019-05-30T02:07:48.584Z,2.50
2019-05-30T02:09:56.028Z,2.30
2019-05-30T02:12:03.698Z,2.40
2019-05-30T02:14:11.175Z,2.40
2019-05-30T02:16:18.731Z,2.63
2019-05-30T02:18:26.048Z,2.70
2019-05-30T02:20:33.426Z,2.43
2019-05-30T02:22:40.882Z,2.53
2019-05-30T02:24:48.324Z,2.40
2019-05-30T02:26:55.730Z,2.50
2019-05-30T02:29:04.178Z,2.33
2019-05-30T02:31:12.405Z,2.80
2019-05-30T02:33:19.965Z,2.70
2019-05-30T02:35:27.469Z,2.60
2019-05-30T02:37:34.925Z,2.43
2019-05-30T02:39:42.339Z,2.50
2019-05-30T02:41:49.703Z,2.47
2019-05-30T02:43:57.088Z,2.63
2019-05-30T02:46:06.371Z,2.90
2019-05-30T02:48:14.489Z,2.87
2019-05-30T02:50:22.192Z,2.90
2019-05-30T02:52:29.664Z,2.90
2019-05-30T02:54:37.114Z,3.00
2019-05-30T02:56:44.489Z,3.37
2019-05-30T02:58:51.882Z,2.90
2019-05-30T03:00:59.338Z,3.10
2019-05-30T03:03:09.286Z,4.00
2019-05-30T03:05:17.150Z,3.80
2019-05-30T03:07:24.565Z,3.80
2019-05-30T03:09:32.173Z,3.90
2019-05-30T03:11:39.547Z,4.27
2019-05-30T03:13:47.555Z,7.63
2019-05-30T03:15:55.152Z,5.17
2019-05-30T03:18:04.653Z,3.37
2019-05-30T03:20:21.958Z,2.43
2019-05-30T03:22:22.229Z,2.50
2019-05-30T03:24:29.841Z,2.40
2019-05-30T03:26:37.355Z,2.83
2019-05-30T03:28:44.836Z,3.27
2019-05-30T03:30:52.453Z,3.47
2019-05-30T03:33:06.828Z,3.43
2019-05-30T03:35:21.604Z,3.50
2019-05-30T03:37:28.690Z,3.70
2019-05-30T03:39:28.614Z,3.27
2019-05-30T03:41:36.059Z,3.20
2019-05-30T03:43:43.566Z,3.17
2019-05-30T03:45:51.667Z,3.20
2019-05-30T03:48:06.540Z,3.27
2019-05-30T03:50:18.004Z,2.83
2019-05-30T03:52:27.633Z,3.00
2019-05-30T03:54:36.602Z,3.20
2019-05-30T03:56:50.726Z,2.53
2019-05-30T03:59:32.294Z,2.40
2019-05-30T04:01:57.467Z,2.53
2019-05-30T04:04:19.147Z,2.43
2019-05-30T04:06:33.704Z,2.83
2019-05-30T04:08:44.770Z,2.33
2019-05-30T04:10:58.683Z,2.50
2019-05-30T04:13:46.281Z,2.47
2019-05-30T04:15:53.785Z,2.27
2019-05-30T04:18:01.184Z,2.67
2019-05-30T04:20:09.854Z,2.53
2019-05-30T04:22:19.593Z,2.37
2019-05-30T04:24:28.223Z,2.37
2019-05-30T04:26:35.601Z,2.57
2019-05-30T04:28:43.017Z,2.33
2019-05-30T04:30:50.398Z,2.80
2019-05-30T04:33:16.231Z,2.40
2019-05-30T04:35:08.045Z,2.43
2019-05-30T04:37:17.195Z,2.50
2019-05-30T04:39:24.805Z,2.50
2019-05-30T04:41:32.273Z,2.57
2019-05-30T04:43:39.688Z,2.60
2019-05-30T04:45:47.135Z,2.43
2019-05-30T04:47:54.535Z,2.63
2019-05-30T04:50:02.214Z,2.87
2019-05-30T04:52:13.931Z,2.67
2019-05-30T04:54:19.657Z,3.13
2019-05-30T04:56:28.276Z,2.67
2019-05-30T04:58:41.643Z,2.40
2019-05-30T05:00:45.819Z,2.80
2019-05-30T05:02:54.931Z,2.43
2019-05-30T05:05:02.858Z,2.20
2019-05-30T05:07:11.503Z,2.23
2019-05-30T05:09:20.300Z,2.37
2019-05-30T05:11:28.069Z,2.57
2019-05-30T05:13:35.665Z,2.23
2019-05-30T05:15:43.274Z,2.40
2019-05-30T05:17:50.968Z,2.50
2019-05-30T05:19:58.565Z,2.53
2019-05-30T05:22:06.055Z,2.00
2019-05-30T05:24:13.509Z,2.17
2019-05-30T05:26:21.631Z,2.10
2019-05-30T05:28:29.217Z,2.33
2019-05-30T05:30:37.012Z,2.50
2019-05-30T05:32:44.946Z,2.53
2019-05-30T05:34:52.594Z,2.20
2019-05-30T05:37:00.154Z,2.30
2019-05-30T05:39:09.211Z,2.50
2019-05-30T05:41:18.165Z,1.97
2019-05-30T05:43:25.988Z,2.13
2019-05-30T05:45:33.887Z,2.30
2019-05-30T05:47:42.296Z,2.50
2019-05-30T05:49:49.913Z,2.00
2019-05-30T05:51:57.410Z,2.07
2019-05-30T05:54:05.553Z,2.80
2019-05-30T05:56:12.983Z,2.40
2019-05-30T05:58:21.142Z,2.33
2019-05-30T06:00:29.609Z,2.50
2019-05-30T06:02:37.423Z,2.43
2019-05-30T06:04:45.154Z,2.33
2019-05-30T06:06:52.897Z,2.30
2019-05-30T06:09:00.626Z,2.60
2019-05-30T06:11:08.486Z,2.33
2019-05-30T06:13:16.617Z,2.77
2019-05-30T06:15:24.984Z,2.53
2019-05-30T06:17:32.635Z,2.47
2019-05-30T06:19:46.364Z,2.30
2019-05-30T06:21:54.008Z,2.07
2019-05-30T06:23:58.551Z,1.87
2019-05-30T06:26:06.830Z,2.33
2019-05-30T06:28:14.278Z,2.43
2019-05-30T06:30:22.616Z,2.10
2019-05-30T06:32:30.340Z,2.93
2019-05-30T06:34:39.637Z,2.37
2019-05-30T06:36:46.917Z,2.30
2019-05-30T06:38:54.372Z,2.23
2019-05-30T06:41:01.855Z,2.03
2019-05-30T06:43:09.207Z,2.20
2019-05-30T06:45:16.857Z,2.00
2019-05-30T06:47:24.404Z,2.20
2019-05-30T06:49:31.907Z,2.10
2019-05-30T06:51:39.318Z,2.25
2019-05-30T06:53:46.839Z,2.30
2019-05-30T06:55:54.355Z,2.23
2019-05-30T06:58:01.798Z,2.40
2019-05-30T07:00:10.484Z,2.20
2019-05-30T07:02:18.134Z,2.60
2019-05-30T07:04:27.373Z,2.03
2019-05-30T07:06:35.478Z,2.27
2019-05-30T07:08:43.148Z,2.20
2019-05-30T07:10:51.478Z,1.90
2019-05-30T07:12:58.882Z,1.93
2019-05-30T07:15:07.927Z,1.80
2019-05-30T07:17:15.332Z,2.10
2019-05-30T07:19:23.347Z,1.80
2019-05-30T07:21:31.769Z,1.60
2019-05-30T07:23:39.913Z,1.67
2019-05-30T07:25:47.629Z,2.27
2019-05-30T07:27:54.956Z,1.80
2019-05-30T07:30:02.383Z,1.87
2019-05-30T07:32:13.314Z,2.17
2019-05-30T07:34:19.784Z,1.73
2019-05-30T07:36:28.213Z,1.70
2019-05-30T07:38:35.705Z,1.43
2019-05-30T07:40:43.514Z,1.90
2019-05-30T07:42:50.986Z,1.97
2019-05-30T07:44:58.488Z,1.67
2019-05-30T07:47:06.076Z,1.63
2019-05-30T07:49:13.499Z,1.63
2019-05-30T07:51:24.328Z,1.43
2019-05-30T07:53:30.694Z,1.60
2019-05-30T07:55:39.112Z,1.70
2019-05-30T07:57:46.854Z,1.63
2019-05-30T07:59:54.326Z,1.87
2019-05-30T08:02:01.947Z,1.70
2019-05-30T08:04:09.423Z,1.67
2019-05-30T08:06:16.947Z,1.60
2019-05-30T08:08:24.463Z,1.67
2019-05-30T08:10:32.088Z,1.80
2019-05-30T08:12:39.679Z,2.10
2019-05-30T08:14:47.144Z,1.60
2019-05-30T08:16:55.487Z,1.93
2019-05-30T08:19:03.338Z,1.63
2019-05-30T08:21:10.937Z,1.70
2019-05-30T08:23:18.366Z,1.93
2019-05-30T08:25:25.825Z,2.00
2019-05-30T08:27:34.331Z,1.80
2019-05-30T08:29:41.783Z,1.63
2019-05-30T08:31:49.795Z,1.40
2019-05-30T08:33:57.324Z,1.40
2019-05-30T08:36:06.000Z,1.80
2019-05-30T08:38:13.603Z,1.93
2019-05-30T08:40:21.455Z,1.47
2019-05-30T08:42:29.519Z,1.63
2019-05-30T08:44:38.013Z,1.70
2019-05-30T08:46:45.633Z,1.53
2019-05-30T08:48:53.181Z,1.70
2019-05-30T08:51:00.641Z,1.57
2019-05-30T08:53:08.217Z,1.80
2019-05-30T08:55:16.753Z,1.70
2019-05-30T08:57:24.283Z,2.00
2019-05-30T08:59:32.371Z,1.73
2019-05-30T09:01:40.565Z,1.90
2019-05-30T09:03:49.247Z,1.70
2019-05-30T09:06:03.520Z,1.77
2019-05-30T09:08:06.128Z,2.07
2019-05-30T09:10:13.741Z,1.73
2019-05-30T09:12:21.312Z,1.60
2019-05-30T09:14:28.814Z,2.27
2019-05-30T09:16:36.371Z,1.70
2019-05-30T09:18:45.183Z,1.67
2019-05-30T09:20:52.814Z,1.60
2019-05-30T09:23:00.243Z,1.30
2019-05-30T09:25:09.578Z,1.80
2019-05-30T09:27:17.098Z,1.37
2019-05-30T09:29:24.816Z,1.70
2019-05-30T09:31:32.990Z,1.90
2019-05-30T09:33:40.960Z,1.80
2019-05-30T09:35:49.063Z,1.70
2019-05-30T09:37:56.596Z,2.03
2019-05-30T09:40:04.772Z,1.93
2019-05-30T09:42:12.565Z,2.00
2019-05-30T09:44:20.281Z,1.87
2019-05-30T09:46:27.851Z,1.70
2019-05-30T09:48:36.027Z,1.97
2019-05-30T09:50:45.121Z,1.80
2019-05-30T09:52:52.786Z,2.10
2019-05-30T09:55:00.271Z,2.10
2019-05-30T09:57:07.759Z,1.80
2019-05-30T09:59:15.545Z,2.13
2019-05-30T10:01:23.270Z,2.20
2019-05-30T10:03:30.869Z,2.40
2019-05-30T10:05:38.453Z,2.00
2019-05-30T10:07:47.437Z,1.80
2019-05-30T10:09:55.438Z,3.40
2019-05-30T10:12:03.298Z,2.27
2019-05-30T10:14:11.237Z,2.02
2019-05-30T10:16:18.930Z,2.60
2019-05-30T10:18:26.424Z,1.93
2019-05-30T10:20:34.050Z,1.63
2019-05-30T10:22:41.594Z,1.67
2019-05-30T10:24:49.139Z,1.80
2019-05-30T10:26:57.371Z,2.30
2019-05-30T10:29:05.032Z,1.80
2019-05-30T10:31:12.582Z,1.90
2019-05-30T10:33:20.369Z,1.62
2019-05-30T10:35:29.939Z,1.80
2019-05-30T10:37:37.283Z,1.77
2019-05-30T10:39:46.001Z,1.20
2019-05-30T10:41:54.023Z,1.60
2019-05-30T10:44:01.522Z,1.55
2019-05-30T10:46:08.951Z,1.77
2019-05-30T10:48:16.449Z,1.77
2019-05-30T10:50:24.535Z,1.87
2019-05-30T10:52:31.977Z,1.40
2019-05-30T10:54:39.413Z,1.50
2019-05-30T10:56:48.393Z,1.22
2019-05-30T10:58:57.232Z,1.50
2019-05-30T11:01:05.217Z,1.30
2019-05-30T11:03:12.788Z,1.20
2019-05-30T11:05:21.994Z,1.80
2019-05-30T11:08:01.971Z,1.57
2019-05-30T11:10:11.798Z,1.52
2019-05-30T11:12:19.321Z,1.70
2019-05-30T11:14:26.827Z,1.42
2019-05-30T11:16:34.370Z,1.62
2019-05-30T11:18:41.877Z,1.45
2019-05-30T11:20:49.969Z,1.62
2019-05-30T11:22:58.469Z,1.30
2019-05-30T11:25:06.531Z,1.60
2019-05-30T11:27:13.995Z,1.60
2019-05-30T11:29:21.418Z,1.60
2019-05-30T11:31:28.967Z,1.65
2019-05-30T11:33:36.488Z,1.57
2019-05-30T11:35:44.011Z,1.80
2019-05-30T11:37:52.985Z,1.40
2019-05-30T11:40:00.784Z,1.25
2019-05-30T11:42:08.405Z,1.60
2019-05-30T11:44:15.910Z,1.22
2019-05-30T11:46:23.569Z,1.37
2019-05-30T11:48:31.047Z,3.62
2019-05-30T11:50:38.611Z,10.43
2019-05-30T11:52:46.135Z,3.20
2019-05-30T11:54:54.168Z,31.60
2019-05-30T11:57:01.827Z,1.85
2019-05-30T11:59:09.284Z,1.70
2019-05-30T12:01:16.829Z,1.82
2019-05-30T12:03:24.471Z,1.77
2019-05-30T12:05:31.883Z,1.70
2019-05-30T12:07:39.501Z,1.70
2019-05-30T12:09:46.989Z,1.80
2019-05-30T12:11:55.184Z,2.47
2019-05-30T12:14:02.832Z,2.33
2019-05-30T12:16:11.543Z,28.57
2019-05-30T12:18:19.040Z,67.40
2019-05-30T12:20:26.958Z,2.08
2019-05-30T12:22:34.434Z,1.80
2019-05-30T12:24:42.051Z,1.65
2019-05-30T12:26:49.466Z,1.50
2019-05-30T12:28:58.064Z,1.57
2019-05-30T12:31:06.776Z,1.80
2019-05-30T12:33:14.528Z,1.80
2019-05-30T12:35:22.218Z,1.50
2019-05-30T12:37:29.901Z,1.77
2019-05-30T12:39:37.516Z,1.72
2019-05-30T12:41:45.083Z,1.70
2019-05-30T12:43:52.995Z,1.75
2019-05-30T12:46:01.254Z,1.85
2019-05-30T12:48:10.026Z,1.95
2019-05-30T12:50:18.384Z,1.80
2019-05-30T12:52:25.877Z,1.60
2019-05-30T12:54:33.423Z,1.55
2019-05-30T12:56:40.850Z,1.75
2019-05-30T12:58:48.346Z,1.90
2019-05-30T13:00:56.645Z,1.40
2019-05-30T13:03:04.446Z,1.67
2019-05-30T13:05:12.410Z,2.33
2019-05-30T13:07:19.937Z,1.80
2019-05-30T13:09:27.597Z,2.00
2019-05-30T13:11:35.108Z,1.80
2019-05-30T13:13:42.997Z,1.60
2019-05-30T13:15:50.625Z,1.57
2019-05-30T13:17:58.846Z,1.60
2019-05-30T13:20:07.850Z,1.95
2019-05-30T13:22:15.469Z,2.92
2019-05-30T13:24:23.277Z,1.85
2019-05-30T13:26:30.936Z,2.25
2019-05-30T13:28:38.650Z,2.35
2019-05-30T13:30:46.204Z,2.25
2019-05-30T13:32:54.547Z,2.50
2019-05-30T13:35:03.161Z,1.75
2019-05-30T13:37:11.303Z,3.15
2019-05-30T13:39:18.845Z,3.05
2019-05-30T13:41:26.445Z,40.12
2019-05-30T13:43:34.079Z,60.35
2019-05-30T13:45:41.900Z,67.90
2019-05-30T13:47:49.332Z,1.65
2019-05-30T13:49:56.736Z,1.32
2019-05-30T13:52:05.167Z,2.08
2019-05-30T13:54:13.169Z,1.98
2019-05-30T13:56:20.673Z,1.90
2019-05-30T13:58:28.082Z,1.80
2019-05-30T14:00:35.644Z,2.00
2019-05-30T14:02:43.974Z,2.05
2019-05-30T14:04:51.579Z,3.30
2019-05-30T14:07:00.047Z,2.47
2019-05-30T14:09:08.684Z,17.55
2019-05-30T14:11:16.099Z,50.43
2019-05-30T14:13:23.669Z,69.47
2019-05-30T14:15:34.099Z,76.53
2019-05-30T14:17:41.668Z,99.87
2019-05-30T14:19:49.187Z,33.25
2019-05-30T14:21:56.767Z,81.63
2019-05-30T14:24:05.311Z,59.58
2019-05-30T14:26:12.899Z,20.23
2019-05-30T14:28:20.341Z,55.78
2019-05-30T14:30:28.297Z,16.35
2019-05-30T14:32:35.846Z,60.78
2019-05-30T14:34:43.371Z,24.85
2019-05-30T14:36:50.862Z,40.78
2019-05-30T14:38:59.148Z,32.10
2019-05-30T14:41:07.121Z,33.18
2019-05-30T14:43:14.674Z,45.43
2019-05-30T14:45:27.637Z,20.40
2019-05-30T14:47:33.731Z,17.87
2019-05-30T14:49:41.158Z,3.45
2019-05-30T14:51:48.639Z,3.58
2019-05-30T14:53:56.254Z,12.03
2019-05-30T14:56:05.001Z,3.83
2019-05-30T14:58:13.367Z,4.40
2019-05-30T15:00:22.628Z,3.47
2019-05-30T15:02:30.477Z,4.92
2019-05-30T15:04:37.953Z,3.50
2019-05-30T15:06:45.547Z,3.10
2019-05-30T15:08:53.030Z,2.35
2019-05-30T15:11:00.588Z,2.50
2019-05-30T15:13:08.221Z,2.52
2019-05-30T15:15:18.751Z,3.98
2019-05-30T15:17:26.666Z,2.75
2019-05-30T15:19:34.099Z,3.02
2019-05-30T15:21:42.881Z,3.40
2019-05-30T15:23:50.340Z,2.37
2019-05-30T15:25:57.837Z,2.60
2019-05-30T15:28:06.008Z,2.55
2019-05-30T15:30:16.889Z,2.47
2019-05-30T15:32:24.633Z,2.47
2019-05-30T15:34:31.968Z,2.45
2019-05-30T15:36:39.405Z,2.27
2019-05-30T15:38:46.843Z,2.12
2019-05-30T15:40:54.265Z,2.50
2019-05-30T15:43:01.765Z,3.60
2019-05-30T15:45:11.928Z,3.37
2019-05-30T15:47:19.629Z,4.25
2019-05-30T15:49:27.155Z,4.30
2019-05-30T15:51:34.773Z,3.20
2019-05-30T15:53:42.319Z,2.30
2019-05-30T15:55:50.700Z,3.05
2019-05-30T15:57:59.136Z,2.12
2019-05-30T16:00:07.875Z,2.60
2019-05-30T16:02:16.122Z,2.65
2019-05-30T16:04:23.655Z,2.35
2019-05-30T16:06:31.177Z,2.52
2019-05-30T16:08:39.043Z,2.77
2019-05-30T16:10:46.588Z,2.30
2019-05-30T16:12:54.080Z,2.58
2019-05-30T16:15:01.628Z,2.47
2019-05-30T16:17:09.711Z,2.35
2019-05-30T16:19:23.319Z,2.60
2019-05-30T16:21:26.649Z,1.92
2019-05-30T16:23:34.464Z,1.72
2019-05-30T16:25:41.920Z,2.47
2019-05-30T16:27:49.915Z,2.20
2019-05-30T16:29:57.737Z,1.90
2019-05-30T16:32:05.434Z,2.35
2019-05-30T16:34:13.959Z,2.20
2019-05-30T16:36:22.502Z,2.80
2019-05-30T16:38:30.333Z,2.40
2019-05-30T16:40:38.117Z,2.30
2019-05-30T16:42:45.774Z,2.77
2019-05-30T16:44:53.570Z,2.52
2019-05-30T16:47:01.248Z,2.37
2019-05-30T16:49:09.187Z,3.65
2019-05-30T16:51:16.715Z,3.08
2019-05-30T16:53:25.881Z,3.10
2019-05-30T16:55:34.381Z,2.37
2019-05-30T16:57:41.927Z,2.10
2019-05-30T16:59:49.628Z,2.58
2019-05-30T17:01:58.500Z,2.70
2019-05-30T17:04:06.587Z,2.42
2019-05-30T17:06:15.809Z,2.47
2019-05-30T17:08:24.444Z,2.08
2019-05-30T17:10:33.364Z,2.77
2019-05-30T17:12:41.061Z,2.52
2019-05-30T17:14:48.678Z,2.50
2019-05-30T17:16:56.462Z,2.67
2019-05-30T17:19:03.954Z,2.58
2019-05-30T17:21:12.059Z,2.95
2019-05-30T17:23:20.628Z,3.25
2019-05-30T17:25:28.514Z,2.70
2019-05-30T17:27:37.125Z,2.60
2019-05-30T17:29:45.154Z,3.95
2019-05-30T17:31:52.831Z,2.55
2019-05-30T17:34:01.972Z,2.93
2019-05-30T17:36:11.974Z,2.87
2019-05-30T17:38:20.389Z,2.25
2019-05-30T17:40:41.225Z,2.10
2019-05-30T17:42:37.932Z,2.85
2019-05-30T17:44:45.607Z,2.80
2019-05-30T17:46:53.302Z,2.60
2019-05-30T17:49:01.103Z,2.85
2019-05-30T17:51:08.639Z,2.62
2019-05-30T17:53:16.267Z,2.62
2019-05-30T17:55:23.957Z,3.17
2019-05-30T17:57:32.084Z,4.10
2019-05-30T17:59:39.595Z,3.20
2019-05-30T18:01:47.234Z,3.35
2019-05-30T18:03:54.806Z,3.02
2019-05-30T18:06:02.507Z,2.75
2019-05-30T18:08:10.301Z,3.05
2019-05-30T18:10:18.345Z,2.85
2019-05-30T18:12:27.029Z,2.67
2019-05-30T18:14:34.737Z,2.80
2019-05-30T18:16:42.380Z,3.77
2019-05-30T18:18:49.856Z,3.10
2019-05-30T18:20:58.622Z,3.10
2019-05-30T18:23:06.657Z,3.07
2019-05-30T18:25:16.676Z,3.00
2019-05-30T18:27:25.851Z,3.00
2019-05-30T18:29:33.746Z,3.53
2019-05-30T18:31:41.371Z,2.87
2019-05-30T18:33:49.064Z,3.00
2019-05-30T18:35:57.022Z,3.15
2019-05-30T18:38:05.146Z,3.62
2019-05-30T18:40:15.060Z,3.13
2019-05-30T18:42:23.170Z,2.60
2019-05-30T18:44:32.814Z,3.07
2019-05-30T18:46:41.371Z,2.58
2019-05-30T18:48:49.561Z,2.93
2019-05-30T18:50:57.403Z,3.33
2019-05-30T18:53:06.100Z,3.30
2019-05-30T18:55:13.822Z,3.70
2019-05-30T18:57:21.884Z,3.62
2019-05-30T18:59:31.088Z,3.80
2019-05-30T19:01:39.503Z,3.43
2019-05-30T19:03:47.401Z,3.27
2019-05-30T19:05:56.330Z,3.70
2019-05-30T19:08:04.291Z,3.60
2019-05-30T19:10:12.130Z,3.90
2019-05-30T19:12:24.093Z,4.50
2019-05-30T19:14:32.478Z,4.97
2019-05-30T19:16:40.205Z,4.10
2019-05-30T19:18:47.897Z,3.70
2019-05-30T19:20:55.633Z,4.07
2019-05-30T19:23:03.649Z,3.73
2019-05-30T19:25:11.943Z,4.10
2019-05-30T19:27:19.686Z,4.53
2019-05-30T19:29:28.890Z,4.23
2019-05-30T19:31:37.050Z,4.23
2019-05-30T19:33:44.975Z,4.43
2019-05-30T19:35:52.569Z,4.80
2019-05-30T19:38:00.566Z,5.20
2019-05-30T19:40:09.529Z,4.27
2019-05-30T19:42:17.422Z,5.10
2019-05-30T19:44:25.240Z,4.37
2019-05-30T19:46:34.225Z,5.23
2019-05-30T19:48:42.268Z,5.60
2019-05-30T19:50:49.948Z,4.67
2019-05-30T19:52:57.607Z,4.20
2019-05-30T19:55:05.648Z,5.27
2019-05-30T19:57:13.163Z,5.37
2019-05-30T19:59:20.874Z,5.70
2019-05-30T20:01:29.692Z,5.23
2019-05-30T20:03:44.784Z,5.73
2019-05-30T20:05:46.770Z,5.47
2019-05-30T20:07:54.526Z,6.60
2019-05-30T20:10:02.243Z,6.40
2019-05-30T20:12:10.036Z,7.43
2019-05-30T20:14:17.641Z,5.87
2019-05-30T20:16:25.286Z,6.43
2019-05-30T20:18:33.550Z,6.67
2019-05-30T20:20:54.197Z,6.50
2019-05-30T20:22:50.916Z,6.60
2019-05-30T20:24:58.453Z,6.30
2019-05-30T20:27:06.182Z,6.40
2019-05-30T20:29:14.189Z,6.10
2019-05-30T20:31:22.138Z,6.93
2019-05-30T20:33:31.092Z,6.83
2019-05-30T20:35:40.073Z,6.33
2019-05-30T20:37:48.176Z,6.47
2019-05-30T20:39:55.790Z,6.70
2019-05-30T20:42:18.191Z,6.70
2019-05-30T20:44:13.213Z,7.03
2019-05-30T20:46:23.502Z,6.77
2019-05-30T20:48:30.347Z,7.23
2019-05-30T20:50:39.103Z,6.27
2019-05-30T20:52:47.653Z,6.70
2019-05-30T20:54:55.430Z,6.00
2019-05-30T20:57:03.176Z,5.67
2019-05-30T20:59:10.780Z,5.63
2019-05-30T21:01:18.407Z,6.03
2019-05-30T21:03:26.668Z,6.37
2019-05-30T21:05:35.663Z,5.10
2019-05-30T21:07:44.601Z,6.00
2019-05-30T21:09:55.063Z,6.00
2019-05-30T21:12:06.404Z,6.10
2019-05-30T21:14:16.528Z,6.37
2019-05-30T21:16:24.490Z,6.07
2019-05-30T21:18:32.242Z,6.47
2019-05-30T21:20:40.061Z,5.90
2019-05-30T21:22:47.743Z,6.73
2019-05-30T21:24:55.453Z,6.43
2019-05-30T21:27:03.096Z,7.23
2019-05-30T21:29:10.816Z,7.73
2019-05-30T21:31:18.470Z,6.20
2019-05-30T21:33:26.016Z,6.37
2019-05-30T21:35:33.846Z,7.00
2019-05-30T21:37:41.779Z,6.50
2019-05-30T21:39:49.496Z,6.10
2019-05-30T21:41:57.002Z,5.53
2019-05-30T21:44:04.660Z,6.10
2019-05-30T21:46:12.108Z,5.97
2019-05-30T21:48:19.654Z,6.70
2019-05-30T21:50:27.146Z,6.30
2019-05-30T21:52:35.787Z,6.07
2019-05-30T21:54:43.822Z,7.00
2019-05-30T21:56:51.469Z,6.07
2019-05-30T21:58:59.063Z,9.97
2019-05-30T22:01:35.039Z,12.97
2019-05-30T22:03:42.799Z,12.30
2019-05-30T22:05:51.960Z,10.50
2019-05-30T22:07:59.621Z,8.13
2019-05-30T22:10:07.752Z,7.17
2019-05-30T22:12:15.509Z,5.60
2019-05-30T22:14:23.109Z,6.30
2019-05-30T22:16:30.480Z,6.03
2019-05-30T22:18:38.176Z,6.00
2019-05-30T22:20:45.884Z,6.77
2019-05-30T22:22:53.431Z,5.37
2019-05-30T22:25:01.025Z,5.40
2019-05-30T22:27:08.530Z,5.80
2019-05-30T22:29:16.083Z,5.00
2019-05-30T22:31:23.630Z,4.97
2019-05-30T22:33:31.116Z,5.80
2019-05-30T22:35:38.854Z,4.87
2019-05-30T22:37:46.825Z,5.90
2019-05-30T22:39:54.827Z,5.50
2019-05-30T22:42:02.919Z,5.73
2019-05-30T22:44:10.637Z,6.37
2019-05-30T22:46:18.083Z,6.17
2019-05-30T22:48:25.698Z,6.50
2019-05-30T22:50:33.244Z,7.00
2019-05-30T22:52:40.711Z,7.50
2019-05-30T22:54:49.107Z,8.43
2019-05-30T22:56:56.687Z,9.87
2019-05-30T22:59:04.250Z,16.83
2019-05-30T23:01:11.704Z,21.93
2019-05-30T23:03:19.238Z,22.43
2019-05-30T23:05:26.739Z,23.83
2019-05-30T23:07:34.175Z,23.77
2019-05-30T23:09:41.727Z,37.53
2019-05-30T23:11:49.692Z,37.17
2019-05-30T23:13:58.308Z,33.43
2019-05-30T23:16:07.250Z,25.47
2019-05-30T23:18:17.437Z,19.37
2019-05-30T23:20:24.868Z,17.03
2019-05-30T23:22:32.502Z,16.37
2019-05-30T23:24:39.904Z,14.33
2019-05-30T23:26:47.478Z,13.60
2019-05-30T23:28:55.849Z,12.93
2019-05-30T23:31:03.271Z,13.03
2019-05-30T23:33:10.702Z,12.63
2019-05-30T23:35:18.316Z,12.37
2019-05-30T23:37:25.727Z,12.10
2019-05-30T23:39:33.147Z,11.73
2019-05-30T23:41:40.630Z,12.20
2019-05-30T23:43:57.968Z,11.47
2019-05-30T23:45:57.538Z,11.20
2019-05-30T23:48:05.274Z,12.20
2019-05-30T23:50:13.436Z,11.67
2019-05-30T23:52:20.842Z,12.30
2019-05-30T23:54:28.418Z,12.27
2019-05-30T23:56:35.972Z,10.83
2019-05-30T23:58:43.490Z,12.67
